sensor_id;sensor_type;location;lat;lon;timestamp;P1;durP1;ratioP1;P2;durP2;ratioP2
55815;SDS011;41744;52.404;16.942;2022-08-25T00:01:10;13.65;;;8.82;;
55815;SDS011;41744;52.404;16.942;2022-08-25T00:03:38;19.45;;;9.45;;
55815;SDS011;41744;52.404;16.942;2022-08-25T00:06:05;17.40;;;9.65;;
55815;SDS011;41744;52.404;16.942;2022-08-25T00:08:31;18.58;;;8.98;;
55815;SDS011;41744;52.404;16.942;2022-08-25T00:10:59;22.55;;;9.48;;
55815;SDS011;41744;52.404;16.942;2022-08-25T00:13:25;15.85;;;9.55;;
55815;SDS011;41744;52.404;16.942;2022-08-25T00:15:51;15.38;;;8.10;;
55815;SDS011;41744;52.404;16.942;2022-08-25T00:18:17;17.33;;;9.27;;
55815;SDS011;41744;52.404;16.942;2022-08-25T00:20:44;14.10;;;8.23;;
55815;SDS011;41744;52.404;16.942;2022-08-25T00:23:11;13.73;;;8.50;;
55815;SDS011;41744;52.404;16.942;2022-08-25T00:25:37;18.85;;;9.60;;
55815;SDS011;41744;52.404;16.942;2022-08-25T00:28:03;15.60;;;8.32;;
55815;SDS011;41744;52.404;16.942;2022-08-25T00:30:29;19.00;;;8.82;;
55815;SDS011;41744;52.404;16.942;2022-08-25T00:32:55;15.52;;;8.85;;
55815;SDS011;41744;52.404;16.942;2022-08-25T00:35:21;18.38;;;8.90;;
55815;SDS011;41744;52.404;16.942;2022-08-25T00:37:48;22.60;;;9.20;;
55815;SDS011;41744;52.404;16.942;2022-08-25T00:40:14;17.08;;;8.98;;
55815;SDS011;41744;52.404;16.942;2022-08-25T00:42:40;16.98;;;9.07;;
55815;SDS011;41744;52.404;16.942;2022-08-25T00:45:06;15.32;;;7.97;;
55815;SDS011;41744;52.404;16.942;2022-08-25T00:47:34;17.48;;;8.32;;
55815;SDS011;41744;52.404;16.942;2022-08-25T00:50:00;15.95;;;8.80;;
55815;SDS011;41744;52.404;16.942;2022-08-25T00:52:33;15.70;;;8.60;;
55815;SDS011;41744;52.404;16.942;2022-08-25T00:55:02;18.60;;;8.75;;
55815;SDS011;41744;52.404;16.942;2022-08-25T00:57:45;14.45;;;8.00;;
55815;SDS011;41744;52.404;16.942;2022-08-25T01:00:15;18.42;;;8.82;;
55815;SDS011;41744;52.404;16.942;2022-08-25T01:02:43;14.90;;;9.02;;
55815;SDS011;41744;52.404;16.942;2022-08-25T01:05:09;16.70;;;8.75;;
55815;SDS011;41744;52.404;16.942;2022-08-25T01:07:36;17.42;;;9.00;;
55815;SDS011;41744;52.404;16.942;2022-08-25T01:10:03;18.25;;;9.52;;
55815;SDS011;41744;52.404;16.942;2022-08-25T01:12:31;15.43;;;8.73;;
55815;SDS011;41744;52.404;16.942;2022-08-25T01:14:57;18.35;;;9.25;;
55815;SDS011;41744;52.404;16.942;2022-08-25T01:17:23;22.48;;;9.10;;
55815;SDS011;41744;52.404;16.942;2022-08-25T01:19:52;19.60;;;10.30;;
55815;SDS011;41744;52.404;16.942;2022-08-25T01:22:19;19.17;;;8.98;;
55815;SDS011;41744;52.404;16.942;2022-08-25T01:25:11;20.25;;;10.15;;
55815;SDS011;41744;52.404;16.942;2022-08-25T01:27:31;20.80;;;9.85;;
55815;SDS011;41744;52.404;16.942;2022-08-25T01:29:57;18.65;;;9.57;;
55815;SDS011;41744;52.404;16.942;2022-08-25T01:32:23;16.33;;;9.70;;
55815;SDS011;41744;52.404;16.942;2022-08-25T01:34:49;21.27;;;10.25;;
55815;SDS011;41744;52.404;16.942;2022-08-25T01:37:15;18.33;;;9.35;;
55815;SDS011;41744;52.404;16.942;2022-08-25T01:39:43;18.33;;;9.40;;
55815;SDS011;41744;52.404;16.942;2022-08-25T01:42:16;17.45;;;9.10;;
55815;SDS011;41744;52.404;16.942;2022-08-25T01:44:43;17.58;;;8.82;;
55815;SDS011;41744;52.404;16.942;2022-08-25T01:47:10;14.75;;;9.10;;
55815;SDS011;41744;52.404;16.942;2022-08-25T01:49:36;21.45;;;9.73;;
55815;SDS011;41744;52.404;16.942;2022-08-25T01:52:09;17.80;;;9.07;;
55815;SDS011;41744;52.404;16.942;2022-08-25T01:54:36;18.83;;;8.52;;
55815;SDS011;41744;52.404;16.942;2022-08-25T01:57:02;18.65;;;8.90;;
55815;SDS011;41744;52.404;16.942;2022-08-25T01:59:28;13.65;;;8.45;;
55815;SDS011;41744;52.404;16.942;2022-08-25T02:01:54;18.65;;;8.75;;
55815;SDS011;41744;52.404;16.942;2022-08-25T02:04:20;17.08;;;8.32;;
55815;SDS011;41744;52.404;16.942;2022-08-25T02:06:46;15.10;;;8.52;;
55815;SDS011;41744;52.404;16.942;2022-08-25T02:09:14;13.68;;;8.18;;
55815;SDS011;41744;52.404;16.942;2022-08-25T02:11:41;16.58;;;8.55;;
55815;SDS011;41744;52.404;16.942;2022-08-25T02:14:08;20.95;;;8.85;;
55815;SDS011;41744;52.404;16.942;2022-08-25T02:16:36;21.35;;;8.63;;
55815;SDS011;41744;52.404;16.942;2022-08-25T02:19:03;20.35;;;9.15;;
55815;SDS011;41744;52.404;16.942;2022-08-25T02:21:30;18.25;;;9.95;;
55815;SDS011;41744;52.404;16.942;2022-08-25T02:23:57;14.50;;;8.32;;
55815;SDS011;41744;52.404;16.942;2022-08-25T02:26:23;19.52;;;8.95;;
55815;SDS011;41744;52.404;16.942;2022-08-25T02:28:49;16.38;;;9.43;;
55815;SDS011;41744;52.404;16.942;2022-08-25T02:31:16;16.88;;;9.60;;
55815;SDS011;41744;52.404;16.942;2022-08-25T02:33:43;19.67;;;8.77;;
55815;SDS011;41744;52.404;16.942;2022-08-25T02:36:09;19.40;;;9.85;;
55815;SDS011;41744;52.404;16.942;2022-08-25T02:38:36;19.15;;;9.90;;
55815;SDS011;41744;52.404;16.942;2022-08-25T02:41:07;20.60;;;9.75;;
55815;SDS011;41744;52.404;16.942;2022-08-25T02:43:33;22.98;;;10.00;;
55815;SDS011;41744;52.404;16.942;2022-08-25T02:45:59;19.38;;;10.75;;
55815;SDS011;41744;52.404;16.942;2022-08-25T02:48:25;26.35;;;11.10;;
55815;SDS011;41744;52.404;16.942;2022-08-25T02:50:52;19.58;;;10.48;;
55815;SDS011;41744;52.404;16.942;2022-08-25T02:53:18;17.30;;;10.30;;
55815;SDS011;41744;52.404;16.942;2022-08-25T02:55:45;22.13;;;11.25;;
55815;SDS011;41744;52.404;16.942;2022-08-25T02:58:12;16.40;;;10.10;;
55815;SDS011;41744;52.404;16.942;2022-08-25T03:00:38;21.95;;;10.35;;
55815;SDS011;41744;52.404;16.942;2022-08-25T03:03:04;19.77;;;11.68;;
55815;SDS011;41744;52.404;16.942;2022-08-25T03:05:30;21.88;;;11.10;;
55815;SDS011;41744;52.404;16.942;2022-08-25T03:07:57;24.13;;;11.48;;
55815;SDS011;41744;52.404;16.942;2022-08-25T03:10:23;20.80;;;10.85;;
55815;SDS011;41744;52.404;16.942;2022-08-25T03:12:49;18.50;;;11.38;;
55815;SDS011;41744;52.404;16.942;2022-08-25T03:15:16;31.63;;;12.15;;
55815;SDS011;41744;52.404;16.942;2022-08-25T03:17:43;25.77;;;11.95;;
55815;SDS011;41744;52.404;16.942;2022-08-25T03:20:09;20.80;;;11.13;;
55815;SDS011;41744;52.404;16.942;2022-08-25T03:22:37;22.05;;;11.23;;
55815;SDS011;41744;52.404;16.942;2022-08-25T03:25:03;18.63;;;11.40;;
55815;SDS011;41744;52.404;16.942;2022-08-25T03:27:48;22.05;;;12.13;;
55815;SDS011;41744;52.404;16.942;2022-08-25T03:30:15;19.15;;;10.85;;
55815;SDS011;41744;52.404;16.942;2022-08-25T03:32:41;18.88;;;11.73;;
55815;SDS011;41744;52.404;16.942;2022-08-25T03:35:08;18.08;;;11.23;;
55815;SDS011;41744;52.404;16.942;2022-08-25T03:37:34;24.23;;;12.38;;
55815;SDS011;41744;52.404;16.942;2022-08-25T03:40:01;19.52;;;11.63;;
55815;SDS011;41744;52.404;16.942;2022-08-25T03:42:28;22.50;;;11.75;;
55815;SDS011;41744;52.404;16.942;2022-08-25T03:44:54;20.85;;;11.23;;
55815;SDS011;41744;52.404;16.942;2022-08-25T03:47:20;22.80;;;12.23;;
55815;SDS011;41744;52.404;16.942;2022-08-25T03:49:48;22.38;;;11.80;;
55815;SDS011;41744;52.404;16.942;2022-08-25T03:52:15;22.02;;;10.93;;
55815;SDS011;41744;52.404;16.942;2022-08-25T03:54:42;26.17;;;11.77;;
55815;SDS011;41744;52.404;16.942;2022-08-25T03:57:08;18.60;;;11.70;;
55815;SDS011;41744;52.404;16.942;2022-08-25T03:59:34;21.15;;;11.05;;
55815;SDS011;41744;52.404;16.942;2022-08-25T04:02:02;22.10;;;10.93;;
55815;SDS011;41744;52.404;16.942;2022-08-25T04:04:28;21.00;;;12.30;;
55815;SDS011;41744;52.404;16.942;2022-08-25T04:06:55;24.73;;;12.40;;
55815;SDS011;41744;52.404;16.942;2022-08-25T04:09:21;22.90;;;11.73;;
55815;SDS011;41744;52.404;16.942;2022-08-25T04:11:47;22.77;;;11.93;;
55815;SDS011;41744;52.404;16.942;2022-08-25T04:14:13;25.27;;;12.95;;
55815;SDS011;41744;52.404;16.942;2022-08-25T04:16:39;20.50;;;12.55;;
55815;SDS011;41744;52.404;16.942;2022-08-25T04:19:06;21.20;;;12.93;;
55815;SDS011;41744;52.404;16.942;2022-08-25T04:21:34;24.10;;;12.35;;
55815;SDS011;41744;52.404;16.942;2022-08-25T04:24:00;26.63;;;13.27;;
55815;SDS011;41744;52.404;16.942;2022-08-25T04:28:53;23.23;;;12.30;;
55815;SDS011;41744;52.404;16.942;2022-08-25T04:31:20;22.38;;;12.52;;
55815;SDS011;41744;52.404;16.942;2022-08-25T04:33:46;20.13;;;11.73;;
55815;SDS011;41744;52.404;16.942;2022-08-25T04:36:12;26.58;;;12.38;;
55815;SDS011;41744;52.404;16.942;2022-08-25T04:38:40;28.85;;;12.32;;
55815;SDS011;41744;52.404;16.942;2022-08-25T04:41:07;19.27;;;11.98;;
55815;SDS011;41744;52.404;16.942;2022-08-25T04:43:33;23.67;;;11.55;;
55815;SDS011;41744;52.404;16.942;2022-08-25T04:46:02;21.63;;;11.38;;
55815;SDS011;41744;52.404;16.942;2022-08-25T04:48:30;24.67;;;11.57;;
55815;SDS011;41744;52.404;16.942;2022-08-25T04:50:56;22.92;;;10.98;;
55815;SDS011;41744;52.404;16.942;2022-08-25T04:53:22;24.02;;;11.57;;
55815;SDS011;41744;52.404;16.942;2022-08-25T04:55:48;20.00;;;10.90;;
55815;SDS011;41744;52.404;16.942;2022-08-25T04:58:15;21.58;;;11.05;;
55815;SDS011;41744;52.404;16.942;2022-08-25T05:00:41;20.90;;;10.32;;
55815;SDS011;41744;52.404;16.942;2022-08-25T05:03:08;22.35;;;10.38;;
55815;SDS011;41744;52.404;16.942;2022-08-25T05:05:37;20.70;;;10.75;;
55815;SDS011;41744;52.404;16.942;2022-08-25T05:08:04;21.67;;;10.02;;
55815;SDS011;41744;52.404;16.942;2022-08-25T05:10:30;18.52;;;10.25;;
55815;SDS011;41744;52.404;16.942;2022-08-25T05:12:56;18.15;;;10.90;;
55815;SDS011;41744;52.404;16.942;2022-08-25T05:15:24;22.83;;;10.30;;
55815;SDS011;41744;52.404;16.942;2022-08-25T05:18:09;22.50;;;11.18;;
55815;SDS011;41744;52.404;16.942;2022-08-25T05:20:35;21.00;;;11.00;;
55815;SDS011;41744;52.404;16.942;2022-08-25T05:23:02;22.33;;;11.05;;
55815;SDS011;41744;52.404;16.942;2022-08-25T05:25:27;21.48;;;11.73;;
55815;SDS011;41744;52.404;16.942;2022-08-25T05:27:54;25.50;;;11.73;;
55815;SDS011;41744;52.404;16.942;2022-08-25T05:30:20;21.23;;;11.13;;
55815;SDS011;41744;52.404;16.942;2022-08-25T05:32:46;24.15;;;12.05;;
55815;SDS011;41744;52.404;16.942;2022-08-25T05:35:12;21.58;;;10.55;;
55815;SDS011;41744;52.404;16.942;2022-08-25T05:37:38;23.42;;;10.75;;
55815;SDS011;41744;52.404;16.942;2022-08-25T05:40:04;20.10;;;11.07;;
55815;SDS011;41744;52.404;16.942;2022-08-25T05:42:30;21.17;;;11.50;;
55815;SDS011;41744;52.404;16.942;2022-08-25T05:44:57;23.45;;;10.20;;
55815;SDS011;41744;52.404;16.942;2022-08-25T05:47:23;17.80;;;10.18;;
55815;SDS011;41744;52.404;16.942;2022-08-25T05:49:49;21.33;;;10.18;;
55815;SDS011;41744;52.404;16.942;2022-08-25T05:52:15;19.17;;;9.77;;
55815;SDS011;41744;52.404;16.942;2022-08-25T05:54:41;16.83;;;9.50;;
55815;SDS011;41744;52.404;16.942;2022-08-25T05:57:07;19.60;;;9.60;;
55815;SDS011;41744;52.404;16.942;2022-08-25T05:59:33;22.40;;;10.52;;
55815;SDS011;41744;52.404;16.942;2022-08-25T06:01:59;17.95;;;9.55;;
55815;SDS011;41744;52.404;16.942;2022-08-25T06:04:44;18.80;;;9.25;;
55815;SDS011;41744;52.404;16.942;2022-08-25T06:07:10;21.67;;;9.77;;
55815;SDS011;41744;52.404;16.942;2022-08-25T06:09:37;17.88;;;9.27;;
55815;SDS011;41744;52.404;16.942;2022-08-25T06:12:03;14.63;;;9.02;;
55815;SDS011;41744;52.404;16.942;2022-08-25T06:14:29;18.73;;;9.43;;
55815;SDS011;41744;52.404;16.942;2022-08-25T06:16:55;15.15;;;8.63;;
55815;SDS011;41744;52.404;16.942;2022-08-25T06:19:21;19.13;;;8.98;;
55815;SDS011;41744;52.404;16.942;2022-08-25T06:21:48;18.00;;;9.55;;
55815;SDS011;41744;52.404;16.942;2022-08-25T06:24:14;20.02;;;8.82;;
55815;SDS011;41744;52.404;16.942;2022-08-25T06:26:40;16.67;;;8.93;;
55815;SDS011;41744;52.404;16.942;2022-08-25T06:29:06;17.73;;;8.98;;
55815;SDS011;41744;52.404;16.942;2022-08-25T06:31:32;16.30;;;9.02;;
55815;SDS011;41744;52.404;16.942;2022-08-25T06:33:58;15.48;;;8.48;;
55815;SDS011;41744;52.404;16.942;2022-08-25T06:36:24;18.83;;;8.32;;
55815;SDS011;41744;52.404;16.942;2022-08-25T06:38:50;18.17;;;8.25;;
55815;SDS011;41744;52.404;16.942;2022-08-25T06:41:17;16.63;;;7.88;;
55815;SDS011;41744;52.404;16.942;2022-08-25T06:43:43;13.65;;;8.23;;
55815;SDS011;41744;52.404;16.942;2022-08-25T06:46:14;22.02;;;8.25;;
55815;SDS011;41744;52.404;16.942;2022-08-25T06:48:40;12.90;;;7.50;;
55815;SDS011;41744;52.404;16.942;2022-08-25T06:51:06;16.65;;;7.50;;
55815;SDS011;41744;52.404;16.942;2022-08-25T06:53:33;14.32;;;7.43;;
55815;SDS011;41744;52.404;16.942;2022-08-25T06:55:59;16.05;;;7.25;;
55815;SDS011;41744;52.404;16.942;2022-08-25T06:58:26;12.93;;;6.82;;
55815;SDS011;41744;52.404;16.942;2022-08-25T07:00:52;15.63;;;7.78;;
55815;SDS011;41744;52.404;16.942;2022-08-25T07:03:18;13.57;;;7.30;;
55815;SDS011;41744;52.404;16.942;2022-08-25T07:05:51;15.25;;;7.10;;
55815;SDS011;41744;52.404;16.942;2022-08-25T07:08:17;12.52;;;6.75;;
55815;SDS011;41744;52.404;16.942;2022-08-25T07:10:44;15.15;;;7.03;;
55815;SDS011;41744;52.404;16.942;2022-08-25T07:13:10;16.23;;;7.18;;
55815;SDS011;41744;52.404;16.942;2022-08-25T07:15:39;14.13;;;6.65;;
55815;SDS011;41744;52.404;16.942;2022-08-25T07:18:06;14.00;;;6.53;;
55815;SDS011;41744;52.404;16.942;2022-08-25T07:20:35;15.13;;;6.85;;
55815;SDS011;41744;52.404;16.942;2022-08-25T07:23:01;13.75;;;6.40;;
55815;SDS011;41744;52.404;16.942;2022-08-25T07:25:28;11.13;;;6.93;;
55815;SDS011;41744;52.404;16.942;2022-08-25T07:27:54;14.50;;;7.90;;
55815;SDS011;41744;52.404;16.942;2022-08-25T07:30:20;15.75;;;7.60;;
55815;SDS011;41744;52.404;16.942;2022-08-25T07:32:47;12.90;;;7.40;;
55815;SDS011;41744;52.404;16.942;2022-08-25T07:35:13;14.43;;;8.18;;
55815;SDS011;41744;52.404;16.942;2022-08-25T07:37:39;14.55;;;7.43;;
55815;SDS011;41744;52.404;16.942;2022-08-25T07:40:07;17.60;;;7.32;;
55815;SDS011;41744;52.404;16.942;2022-08-25T07:42:33;14.18;;;7.47;;
55815;SDS011;41744;52.404;16.942;2022-08-25T07:45:00;13.45;;;7.30;;
55815;SDS011;41744;52.404;16.942;2022-08-25T07:47:26;15.25;;;6.88;;
55815;SDS011;41744;52.404;16.942;2022-08-25T07:49:52;15.35;;;6.45;;
55815;SDS011;41744;52.404;16.942;2022-08-25T07:52:18;11.45;;;6.57;;
55815;SDS011;41744;52.404;16.942;2022-08-25T07:54:44;16.52;;;7.15;;
55815;SDS011;41744;52.404;16.942;2022-08-25T07:57:10;17.08;;;7.60;;
55815;SDS011;41744;52.404;16.942;2022-08-25T07:59:40;15.05;;;7.10;;
55815;SDS011;41744;52.404;16.942;2022-08-25T08:02:07;9.93;;;5.40;;
55815;SDS011;41744;52.404;16.942;2022-08-25T08:04:34;10.55;;;5.32;;
55815;SDS011;41744;52.404;16.942;2022-08-25T08:07:00;12.25;;;5.90;;
55815;SDS011;41744;52.404;16.942;2022-08-25T08:09:26;12.07;;;6.05;;
55815;SDS011;41744;52.404;16.942;2022-08-25T08:11:54;13.18;;;5.47;;
55815;SDS011;41744;52.404;16.942;2022-08-25T08:14:21;10.55;;;6.07;;
55815;SDS011;41744;52.404;16.942;2022-08-25T08:16:47;14.60;;;5.82;;
55815;SDS011;41744;52.404;16.942;2022-08-25T08:19:14;14.52;;;6.43;;
55815;SDS011;41744;52.404;16.942;2022-08-25T08:21:40;15.32;;;6.13;;
55815;SDS011;41744;52.404;16.942;2022-08-25T08:24:06;12.77;;;6.47;;
55815;SDS011;41744;52.404;16.942;2022-08-25T08:26:32;13.45;;;6.43;;
55815;SDS011;41744;52.404;16.942;2022-08-25T08:28:58;13.50;;;6.47;;
55815;SDS011;41744;52.404;16.942;2022-08-25T08:31:25;9.70;;;6.40;;
55815;SDS011;41744;52.404;16.942;2022-08-25T08:33:52;15.48;;;6.78;;
55815;SDS011;41744;52.404;16.942;2022-08-25T08:36:19;16.02;;;6.70;;
55815;SDS011;41744;52.404;16.942;2022-08-25T08:38:46;14.45;;;7.10;;
55815;SDS011;41744;52.404;16.942;2022-08-25T08:47:04;13.43;;;6.55;;
55815;SDS011;41744;52.404;16.942;2022-08-25T08:49:34;17.65;;;6.40;;
55815;SDS011;41744;52.404;16.942;2022-08-25T08:52:01;13.88;;;6.40;;
55815;SDS011;41744;52.404;16.942;2022-08-25T08:54:30;16.38;;;7.13;;
55815;SDS011;41744;52.404;16.942;2022-08-25T08:57:01;13.05;;;6.30;;
55815;SDS011;41744;52.404;16.942;2022-08-25T08:59:30;17.42;;;6.78;;
55815;SDS011;41744;52.404;16.942;2022-08-25T09:02:02;15.00;;;6.53;;
55815;SDS011;41744;52.404;16.942;2022-08-25T09:06:56;20.58;;;7.43;;
55815;SDS011;41744;52.404;16.942;2022-08-25T09:09:26;13.75;;;7.05;;
55815;SDS011;41744;52.404;16.942;2022-08-25T09:12:07;15.55;;;6.57;;
55815;SDS011;41744;52.404;16.942;2022-08-25T09:14:45;21.50;;;6.90;;
55815;SDS011;41744;52.404;16.942;2022-08-25T09:25:42;14.48;;;5.90;;
55815;SDS011;41744;52.404;16.942;2022-08-25T09:31:03;10.70;;;6.20;;
55815;SDS011;41744;52.404;16.942;2022-08-25T09:33:30;11.90;;;6.25;;
55815;SDS011;41744;52.404;16.942;2022-08-25T09:35:57;14.35;;;5.95;;
55815;SDS011;41744;52.404;16.942;2022-08-25T09:38:23;13.15;;;6.60;;
55815;SDS011;41744;52.404;16.942;2022-08-25T09:40:52;11.60;;;5.90;;
55815;SDS011;41744;52.404;16.942;2022-08-25T09:43:23;14.35;;;6.18;;
55815;SDS011;41744;52.404;16.942;2022-08-25T09:48:45;11.30;;;6.53;;
55815;SDS011;41744;52.404;16.942;2022-08-25T09:54:04;16.73;;;6.97;;
55815;SDS011;41744;52.404;16.942;2022-08-25T09:56:31;16.73;;;6.40;;
55815;SDS011;41744;52.404;16.942;2022-08-25T10:01:51;18.80;;;6.30;;
55815;SDS011;41744;52.404;16.942;2022-08-25T10:04:28;14.68;;;6.15;;
55815;SDS011;41744;52.404;16.942;2022-08-25T10:06:56;13.63;;;6.22;;
55815;SDS011;41744;52.404;16.942;2022-08-25T10:09:27;15.73;;;6.40;;
55815;SDS011;41744;52.404;16.942;2022-08-25T10:11:56;18.02;;;6.28;;
55815;SDS011;41744;52.404;16.942;2022-08-25T10:14:27;15.43;;;6.43;;
55815;SDS011;41744;52.404;16.942;2022-08-25T10:17:11;14.05;;;6.25;;
55815;SDS011;41744;52.404;16.942;2022-08-25T10:19:37;19.70;;;6.00;;
55815;SDS011;41744;52.404;16.942;2022-08-25T10:22:07;20.65;;;6.13;;
55815;SDS011;41744;52.404;16.942;2022-08-25T10:24:34;15.45;;;6.13;;
55815;SDS011;41744;52.404;16.942;2022-08-25T10:27:08;14.82;;;5.93;;
55815;SDS011;41744;52.404;16.942;2022-08-25T10:32:19;18.60;;;6.47;;
55815;SDS011;41744;52.404;16.942;2022-08-25T10:34:51;21.27;;;6.18;;
55815;SDS011;41744;52.404;16.942;2022-08-25T10:37:40;18.50;;;6.35;;
55815;SDS011;41744;52.404;16.942;2022-08-25T10:45:22;23.08;;;6.88;;
55815;SDS011;41744;52.404;16.942;2022-08-25T10:48:14;18.90;;;6.15;;
55815;SDS011;41744;52.404;16.942;2022-08-25T10:53:23;20.58;;;6.97;;
55815;SDS011;41744;52.404;16.942;2022-08-25T10:55:56;17.75;;;6.15;;
55815;SDS011;41744;52.404;16.942;2022-08-25T11:06:16;17.83;;;5.70;;
55815;SDS011;41744;52.404;16.942;2022-08-25T11:08:50;17.15;;;5.82;;
55815;SDS011;41744;52.404;16.942;2022-08-25T11:11:24;21.88;;;5.90;;
55815;SDS011;41744;52.404;16.942;2022-08-25T11:16:38;23.35;;;6.32;;
55815;SDS011;41744;52.404;16.942;2022-08-25T11:19:18;16.80;;;5.32;;
55815;SDS011;41744;52.404;16.942;2022-08-25T11:21:47;17.67;;;6.30;;
55815;SDS011;41744;52.404;16.942;2022-08-25T11:26:56;17.95;;;5.18;;
55815;SDS011;41744;52.404;16.942;2022-08-25T11:29:26;16.17;;;5.75;;
55815;SDS011;41744;52.404;16.942;2022-08-25T11:31:55;15.05;;;4.82;;
55815;SDS011;41744;52.404;16.942;2022-08-25T11:34:23;18.85;;;5.43;;
55815;SDS011;41744;52.404;16.942;2022-08-25T11:55:13;16.25;;;6.32;;
55815;SDS011;41744;52.404;16.942;2022-08-25T11:57:40;21.42;;;5.88;;
55815;SDS011;41744;52.404;16.942;2022-08-25T12:00:14;12.38;;;5.82;;
55815;SDS011;41744;52.404;16.942;2022-08-25T12:02:58;19.17;;;5.53;;
55815;SDS011;41744;52.404;16.942;2022-08-25T12:10:57;13.40;;;5.45;;
55815;SDS011;41744;52.404;16.942;2022-08-25T12:15:57;17.77;;;5.88;;
55815;SDS011;41744;52.404;16.942;2022-08-25T12:23:34;18.88;;;5.90;;
55815;SDS011;41744;52.404;16.942;2022-08-25T12:26:06;20.80;;;6.47;;
55815;SDS011;41744;52.404;16.942;2022-08-25T12:28:36;24.30;;;6.35;;
55815;SDS011;41744;52.404;16.942;2022-08-25T12:31:08;19.05;;;5.93;;
55815;SDS011;41744;52.404;16.942;2022-08-25T12:36:07;13.82;;;5.80;;
55815;SDS011;41744;52.404;16.942;2022-08-25T12:38:44;16.77;;;5.35;;
55815;SDS011;41744;52.404;16.942;2022-08-25T12:41:11;22.30;;;5.82;;
55815;SDS011;41744;52.404;16.942;2022-08-25T12:43:39;19.60;;;6.07;;
55815;SDS011;41744;52.404;16.942;2022-08-25T12:54:00;25.27;;;5.47;;
55815;SDS011;41744;52.404;16.942;2022-08-25T12:56:39;20.52;;;5.97;;
55815;SDS011;41744;52.404;16.942;2022-08-25T13:04:18;22.35;;;5.95;;
55815;SDS011;41744;52.404;16.942;2022-08-25T13:09:56;25.75;;;5.53;;
55815;SDS011;41744;52.404;16.942;2022-08-25T13:12:32;19.85;;;5.63;;
55815;SDS011;41744;52.404;16.942;2022-08-25T13:14:59;17.48;;;5.60;;
55815;SDS011;41744;52.404;16.942;2022-08-25T13:20:02;16.05;;;5.68;;
55815;SDS011;41744;52.404;16.942;2022-08-25T13:22:34;21.45;;;5.57;;
55815;SDS011;41744;52.404;16.942;2022-08-25T13:25:01;24.88;;;6.10;;
55815;SDS011;41744;52.404;16.942;2022-08-25T13:27:28;21.20;;;6.03;;
55815;SDS011;41744;52.404;16.942;2022-08-25T13:29:56;22.17;;;5.70;;
55815;SDS011;41744;52.404;16.942;2022-08-25T13:32:27;22.85;;;6.00;;
55815;SDS011;41744;52.404;16.942;2022-08-25T13:35:10;19.38;;;5.60;;
55815;SDS011;41744;52.404;16.942;2022-08-25T13:37:36;32.30;;;5.95;;
55815;SDS011;41744;52.404;16.942;2022-08-25T13:40:35;28.38;;;6.20;;
55815;SDS011;41744;52.404;16.942;2022-08-25T13:43:02;23.15;;;5.72;;
55815;SDS011;41744;52.404;16.942;2022-08-25T13:45:30;25.27;;;5.60;;
55815;SDS011;41744;52.404;16.942;2022-08-25T13:48:01;19.60;;;5.78;;
55815;SDS011;41744;52.404;16.942;2022-08-25T13:50:29;22.13;;;5.20;;
55815;SDS011;41744;52.404;16.942;2022-08-25T13:55:27;23.35;;;5.70;;
55815;SDS011;41744;52.404;16.942;2022-08-25T13:57:55;29.08;;;5.68;;
55815;SDS011;41744;52.404;16.942;2022-08-25T14:00:30;31.38;;;5.85;;
55815;SDS011;41744;52.404;16.942;2022-08-25T14:02:56;17.33;;;5.20;;
55815;SDS011;41744;52.404;16.942;2022-08-25T14:05:42;26.90;;;5.40;;
55815;SDS011;41744;52.404;16.942;2022-08-25T14:11:08;17.63;;;5.18;;
55815;SDS011;41744;52.404;16.942;2022-08-25T14:13:35;19.77;;;5.32;;
55815;SDS011;41744;52.404;16.942;2022-08-25T14:16:17;24.48;;;5.22;;
55815;SDS011;41744;52.404;16.942;2022-08-25T14:18:51;24.67;;;5.63;;
55815;SDS011;41744;52.404;16.942;2022-08-25T14:21:19;19.85;;;5.35;;
55815;SDS011;41744;52.404;16.942;2022-08-25T14:23:46;19.60;;;5.85;;
55815;SDS011;41744;52.404;16.942;2022-08-25T14:26:12;24.30;;;5.78;;
55815;SDS011;41744;52.404;16.942;2022-08-25T14:28:39;21.35;;;5.88;;
55815;SDS011;41744;52.404;16.942;2022-08-25T14:31:07;19.05;;;5.70;;
55815;SDS011;41744;52.404;16.942;2022-08-25T14:33:37;27.25;;;5.90;;
55815;SDS011;41744;52.404;16.942;2022-08-25T14:36:03;32.55;;;6.07;;
55815;SDS011;41744;52.404;16.942;2022-08-25T14:38:30;24.63;;;5.40;;
55815;SDS011;41744;52.404;16.942;2022-08-25T14:40:57;21.75;;;6.60;;
55815;SDS011;41744;52.404;16.942;2022-08-25T14:43:23;21.02;;;6.13;;
55815;SDS011;41744;52.404;16.942;2022-08-25T14:45:49;23.00;;;6.35;;
55815;SDS011;41744;52.404;16.942;2022-08-25T14:48:18;31.75;;;6.13;;
55815;SDS011;41744;52.404;16.942;2022-08-25T14:50:45;22.05;;;6.43;;
55815;SDS011;41744;52.404;16.942;2022-08-25T14:53:11;21.33;;;6.32;;
55815;SDS011;41744;52.404;16.942;2022-08-25T14:55:37;20.23;;;6.50;;
55815;SDS011;41744;52.404;16.942;2022-08-25T14:58:03;27.10;;;8.82;;
55815;SDS011;41744;52.404;16.942;2022-08-25T15:00:30;21.95;;;7.90;;
55815;SDS011;41744;52.404;16.942;2022-08-25T15:02:56;18.90;;;6.43;;
55815;SDS011;41744;52.404;16.942;2022-08-25T15:05:24;27.90;;;5.82;;
55815;SDS011;41744;52.404;16.942;2022-08-25T15:07:51;22.70;;;6.32;;
55815;SDS011;41744;52.404;16.942;2022-08-25T15:10:38;22.33;;;5.70;;
55815;SDS011;41744;52.404;16.942;2022-08-25T15:13:04;21.85;;;6.60;;
55815;SDS011;41744;52.404;16.942;2022-08-25T15:15:30;22.45;;;6.05;;
55815;SDS011;41744;52.404;16.942;2022-08-25T15:17:57;23.40;;;6.05;;
55815;SDS011;41744;52.404;16.942;2022-08-25T15:20:23;28.25;;;6.03;;
55815;SDS011;41744;52.404;16.942;2022-08-25T15:22:49;21.23;;;5.90;;
55815;SDS011;41744;52.404;16.942;2022-08-25T15:25:15;22.25;;;5.65;;
55815;SDS011;41744;52.404;16.942;2022-08-25T15:27:42;25.90;;;5.65;;
55815;SDS011;41744;52.404;16.942;2022-08-25T15:30:08;32.42;;;6.55;;
55815;SDS011;41744;52.404;16.942;2022-08-25T15:32:34;26.45;;;6.32;;
55815;SDS011;41744;52.404;16.942;2022-08-25T15:35:01;29.42;;;6.65;;
55815;SDS011;41744;52.404;16.942;2022-08-25T15:37:27;24.63;;;6.63;;
55815;SDS011;41744;52.404;16.942;2022-08-25T15:39:55;24.33;;;6.28;;
55815;SDS011;41744;52.404;16.942;2022-08-25T15:42:21;20.40;;;5.72;;
55815;SDS011;41744;52.404;16.942;2022-08-25T15:44:49;23.90;;;6.65;;
55815;SDS011;41744;52.404;16.942;2022-08-25T15:47:15;24.25;;;6.35;;
55815;SDS011;41744;52.404;16.942;2022-08-25T15:49:41;27.20;;;6.72;;
55815;SDS011;41744;52.404;16.942;2022-08-25T15:52:07;23.45;;;6.03;;
55815;SDS011;41744;52.404;16.942;2022-08-25T15:54:34;20.65;;;5.90;;
55815;SDS011;41744;52.404;16.942;2022-08-25T15:57:00;19.50;;;6.13;;
55815;SDS011;41744;52.404;16.942;2022-08-25T15:59:26;24.65;;;6.10;;
55815;SDS011;41744;52.404;16.942;2022-08-25T16:01:52;20.90;;;6.20;;
55815;SDS011;41744;52.404;16.942;2022-08-25T16:04:19;26.83;;;5.72;;
55815;SDS011;41744;52.404;16.942;2022-08-25T16:06:45;23.95;;;6.10;;
55815;SDS011;41744;52.404;16.942;2022-08-25T16:09:11;30.33;;;6.00;;
55815;SDS011;41744;52.404;16.942;2022-08-25T16:11:37;21.73;;;5.90;;
55815;SDS011;41744;52.404;16.942;2022-08-25T16:14:03;25.45;;;5.88;;
55815;SDS011;41744;52.404;16.942;2022-08-25T16:16:30;20.10;;;6.22;;